sensor_id;sensor_type;location;lat;lon;timestamp;pressure;altitude;pressure_sealevel;temperature;humidity
18275;BME280;19470;49.322;7.218;2023-03-22T00:01:33;98479.44;;;16.07;84.29
18275;BME280;19470;49.322;7.218;2023-03-22T00:04:01;98472.34;;;15.63;85.45
18275;BME280;19470;49.322;7.218;2023-03-22T00:06:28;98465.44;;;15.91;84.87
18275;BME280;19470;49.322;7.218;2023-03-22T00:08:54;98461.94;;;15.96;84.67
18275;BME280;19470;49.322;7.218;2023-03-22T00:11:22;98458.63;;;16.33;82.95
18275;BME280;19470;49.322;7.218;2023-03-22T00:13:50;98459.72;;;16.03;84.52
18275;BME280;19470;49.322;7.218;2023-03-22T00:16:17;98461.53;;;15.78;85.66
18275;BME280;19470;49.322;7.218;2023-03-22T00:18:44;98451.38;;;15.80;85.52
18275;BME280;19470;49.322;7.218;2023-03-22T00:21:12;98446.88;;;16.05;83.75
18275;BME280;19470;49.322;7.218;2023-03-22T00:23:39;98445.88;;;16.49;83.14
18275;BME280;19470;49.322;7.218;2023-03-22T00:26:06;98444.66;;;16.12;83.00
18275;BME280;19470;49.322;7.218;2023-03-22T00:28:35;98450.56;;;16.09;84.61
18275;BME280;19470;49.322;7.218;2023-03-22T00:31:02;98443.84;;;15.88;86.88
18275;BME280;19470;49.322;7.218;2023-03-22T00:33:30;98439.44;;;16.02;83.17
18275;BME280;19470;49.322;7.218;2023-03-22T00:35:58;98441.13;;;15.58;88.00
18275;BME280;19470;49.322;7.218;2023-03-22T00:38:25;98429.09;;;16.19;83.86
18275;BME280;19470;49.322;7.218;2023-03-22T00:41:08;98423.03;;;15.84;84.45
18275;BME280;19470;49.322;7.218;2023-03-22T00:43:37;98422.72;;;15.57;84.99
18275;BME280;19470;49.322;7.218;2023-03-22T00:46:04;98425.13;;;14.80;91.84
18275;BME280;19470;49.322;7.218;2023-03-22T00:48:31;98418.19;;;15.57;89.69
18275;BME280;19470;49.322;7.218;2023-03-22T00:50:58;98418.88;;;15.39;90.82
18275;BME280;19470;49.322;7.218;2023-03-22T00:53:24;98421.19;;;15.51;90.23
18275;BME280;19470;49.322;7.218;2023-03-22T00:55:53;98429.72;;;15.48;89.45
18275;BME280;19470;49.322;7.218;2023-03-22T00:58:19;98422.47;;;15.19;88.67
18275;BME280;19470;49.322;7.218;2023-03-22T01:00:47;98425.34;;;15.28;88.23
18275;BME280;19470;49.322;7.218;2023-03-22T01:03:14;98423.69;;;14.98;90.62
18275;BME280;19470;49.322;7.218;2023-03-22T01:05:43;98415.69;;;14.98;90.08
18275;BME280;19470;49.322;7.218;2023-03-22T01:08:10;98411.31;;;15.17;88.98
18275;BME280;19470;49.322;7.218;2023-03-22T01:10:38;98415.97;;;15.36;86.94
18275;BME280;19470;49.322;7.218;2023-03-22T01:13:06;98416.31;;;14.85;90.11
18275;BME280;19470;49.322;7.218;2023-03-22T01:15:33;98418.94;;;15.34;87.77
18275;BME280;19470;49.322;7.218;2023-03-22T01:18:02;98420.53;;;14.91;89.72
18275;BME280;19470;49.322;7.218;2023-03-22T01:20:29;98414.63;;;14.99;89.28
18275;BME280;19470;49.322;7.218;2023-03-22T01:22:55;98413.72;;;15.48;87.82
18275;BME280;19470;49.322;7.218;2023-03-22T01:25:22;98415.34;;;15.49;86.30
18275;BME280;19470;49.322;7.218;2023-03-22T01:27:48;98411.97;;;15.72;85.42
18275;BME280;19470;49.322;7.218;2023-03-22T01:30:15;98404.66;;;15.49;86.97
18275;BME280;19470;49.322;7.218;2023-03-22T01:32:42;98404.66;;;16.07;83.85
18275;BME280;19470;49.322;7.218;2023-03-22T01:35:10;98400.50;;;15.96;83.73
18275;BME280;19470;49.322;7.218;2023-03-22T01:37:36;98396.41;;;15.11;87.28
18275;BME280;19470;49.322;7.218;2023-03-22T01:40:04;98401.13;;;15.24;87.55
18275;BME280;19470;49.322;7.218;2023-03-22T01:42:31;98402.56;;;15.75;85.74
18275;BME280;19470;49.322;7.218;2023-03-22T01:45:26;98395.66;;;15.74;86.18
18275;BME280;19470;49.322;7.218;2023-03-22T01:47:59;98391.88;;;15.46;88.38
18275;BME280;19470;49.322;7.218;2023-03-22T01:50:29;98389.84;;;15.32;88.18
18275;BME280;19470;49.322;7.218;2023-03-22T01:52:56;98387.59;;;15.79;86.00
18275;BME280;19470;49.322;7.218;2023-03-22T01:55:24;98391.53;;;15.52;87.49
18275;BME280;19470;49.322;7.218;2023-03-22T01:57:52;98380.03;;;15.23;88.76
18275;BME280;19470;49.322;7.218;2023-03-22T02:00:19;98380.78;;;15.63;86.37
18275;BME280;19470;49.322;7.218;2023-03-22T02:02:48;98379.25;;;15.22;88.60
18275;BME280;19470;49.322;7.218;2023-03-22T02:05:16;98377.56;;;14.53;93.19
18275;BME280;19470;49.322;7.218;2023-03-22T02:07:44;98375.56;;;15.81;86.34
18275;BME280;19470;49.322;7.218;2023-03-22T02:10:12;98372.00;;;14.94;90.67
18275;BME280;19470;49.322;7.218;2023-03-22T02:12:44;98377.28;;;14.99;90.79
18275;BME280;19470;49.322;7.218;2023-03-22T02:15:19;98375.47;;;14.50;93.64
18275;BME280;19470;49.322;7.218;2023-03-22T02:17:54;98375.41;;;14.60;93.17
18275;BME280;19470;49.322;7.218;2023-03-22T02:20:43;98369.06;;;15.64;86.93
18275;BME280;19470;49.322;7.218;2023-03-22T02:26:45;98362.34;;;15.90;84.49
18275;BME280;19470;49.322;7.218;2023-03-22T02:29:23;98363.44;;;15.65;86.05
18275;BME280;19470;49.322;7.218;2023-03-22T02:32:22;98366.28;;;15.74;86.86
18275;BME280;19470;49.322;7.218;2023-03-22T02:35:27;98358.63;;;15.67;86.32
18275;BME280;19470;49.322;7.218;2023-03-22T02:41:07;98372.41;;;14.67;93.27
18275;BME280;19470;49.322;7.218;2023-03-22T02:43:36;98375.41;;;15.33;88.86
18275;BME280;19470;49.322;7.218;2023-03-22T02:46:13;98370.13;;;15.28;89.34
18275;BME280;19470;49.322;7.218;2023-03-22T02:48:51;98371.41;;;15.36;87.63
18275;BME280;19470;49.322;7.218;2023-03-22T02:51:20;98360.66;;;15.75;85.89
18275;BME280;19470;49.322;7.218;2023-03-22T02:53:51;98366.41;;;15.58;86.35
18275;BME280;19470;49.322;7.218;2023-03-22T02:56:23;98356.22;;;15.66;87.03
18275;BME280;19470;49.322;7.218;2023-03-22T02:58:53;98368.50;;;15.32;87.97
18275;BME280;19470;49.322;7.218;2023-03-22T03:01:24;98354.78;;;15.44;87.71
18275;BME280;19470;49.322;7.218;2023-03-22T03:03:56;98355.28;;;14.83;90.68
18275;BME280;19470;49.322;7.218;2023-03-22T03:06:26;98353.97;;;14.75;92.01
18275;BME280;19470;49.322;7.218;2023-03-22T03:08:56;98348.41;;;15.11;89.69
18275;BME280;19470;49.322;7.218;2023-03-22T03:11:31;98348.66;;;14.75;90.84
18275;BME280;19470;49.322;7.218;2023-03-22T03:13:57;98345.78;;;15.06;89.26
18275;BME280;19470;49.322;7.218;2023-03-22T03:16:25;98343.00;;;14.87;90.31
18275;BME280;19470;49.322;7.218;2023-03-22T03:18:58;98342.63;;;14.99;89.02
18275;BME280;19470;49.322;7.218;2023-03-22T03:21:30;98339.53;;;14.81;89.79
18275;BME280;19470;49.322;7.218;2023-03-22T03:24:11;98338.19;;;14.35;92.46
18275;BME280;19470;49.322;7.218;2023-03-22T03:26:46;98335.91;;;14.67;89.75
18275;BME280;19470;49.322;7.218;2023-03-22T03:29:21;98329.81;;;14.62;90.80
18275;BME280;19470;49.322;7.218;2023-03-22T03:31:54;98329.38;;;14.39;92.08
18275;BME280;19470;49.322;7.218;2023-03-22T03:34:26;98322.88;;;14.66;89.56
18275;BME280;19470;49.322;7.218;2023-03-22T03:36:59;98326.84;;;14.68;90.46
18275;BME280;19470;49.322;7.218;2023-03-22T03:39:31;98322.25;;;14.24;91.42
18275;BME280;19470;49.322;7.218;2023-03-22T03:42:00;98328.38;;;14.79;89.09
18275;BME280;19470;49.322;7.218;2023-03-22T03:44:28;98329.16;;;14.80;88.74
18275;BME280;19470;49.322;7.218;2023-03-22T03:46:56;98329.53;;;14.63;89.77
18275;BME280;19470;49.322;7.218;2023-03-22T03:49:23;98327.88;;;14.72;89.01
18275;BME280;19470;49.322;7.218;2023-03-22T03:51:52;98320.00;;;14.91;87.41
18275;BME280;19470;49.322;7.218;2023-03-22T03:54:20;98311.84;;;14.82;88.04
18275;BME280;19470;49.322;7.218;2023-03-22T03:56:47;98312.66;;;14.28;90.22
18275;BME280;19470;49.322;7.218;2023-03-22T03:59:15;98328.09;;;14.31;89.35
18275;BME280;19470;49.322;7.218;2023-03-22T04:01:43;98326.53;;;14.20;90.65
18275;BME280;19470;49.322;7.218;2023-03-22T04:04:15;98325.84;;;13.99;92.54
18275;BME280;19470;49.322;7.218;2023-03-22T04:06:42;98326.16;;;13.82;92.45
18275;BME280;19470;49.322;7.218;2023-03-22T04:09:08;98328.81;;;13.77;93.94
18275;BME280;19470;49.322;7.218;2023-03-22T04:11:36;98329.97;;;13.56;93.27
18275;BME280;19470;49.322;7.218;2023-03-22T04:14:02;98334.09;;;13.98;92.69
18275;BME280;19470;49.322;7.218;2023-03-22T04:16:30;98334.59;;;14.05;92.82
18275;BME280;19470;49.322;7.218;2023-03-22T04:18:57;98326.59;;;14.10;91.33
18275;BME280;19470;49.322;7.218;2023-03-22T04:21:23;98330.94;;;13.86;94.08
18275;BME280;19470;49.322;7.218;2023-03-22T04:23:49;98322.97;;;13.80;93.38
18275;BME280;19470;49.322;7.218;2023-03-22T04:26:16;98333.06;;;13.94;94.41
18275;BME280;19470;49.322;7.218;2023-03-22T04:28:43;98325.09;;;13.89;93.39
18275;BME280;19470;49.322;7.218;2023-03-22T04:31:09;98327.31;;;13.46;97.68
18275;BME280;19470;49.322;7.218;2023-03-22T04:33:37;98323.03;;;14.30;91.39
18275;BME280;19470;49.322;7.218;2023-03-22T04:36:05;98324.66;;;13.30;97.30
18275;BME280;19470;49.322;7.218;2023-03-22T04:38:34;98322.97;;;13.80;94.21
18275;BME280;19470;49.322;7.218;2023-03-22T04:41:01;98323.03;;;13.65;96.85
18275;BME280;19470;49.322;7.218;2023-03-22T04:43:29;98332.50;;;13.97;93.97
18275;BME280;19470;49.322;7.218;2023-03-22T04:45:59;98323.50;;;13.77;95.79
18275;BME280;19470;49.322;7.218;2023-03-22T04:48:26;98324.28;;;13.93;94.51
18275;BME280;19470;49.322;7.218;2023-03-22T04:50:55;98325.69;;;13.45;97.17
18275;BME280;19470;49.322;7.218;2023-03-22T04:53:22;98330.88;;;14.01;93.36
18275;BME280;19470;49.322;7.218;2023-03-22T04:55:52;98325.88;;;14.54;90.34
18275;BME280;19470;49.322;7.218;2023-03-22T04:58:21;98325.00;;;14.09;93.02
18275;BME280;19470;49.322;7.218;2023-03-22T05:00:47;98325.50;;;14.21;91.92
18275;BME280;19470;49.322;7.218;2023-03-22T05:03:17;98331.72;;;13.86;92.99
18275;BME280;19470;49.322;7.218;2023-03-22T05:05:51;98324.38;;;14.27;92.22
18275;BME280;19470;49.322;7.218;2023-03-22T05:08:20;98325.56;;;14.61;88.87
18275;BME280;19470;49.322;7.218;2023-03-22T05:10:46;98320.78;;;14.57;89.25
18275;BME280;19470;49.322;7.218;2023-03-22T05:13:13;98328.03;;;14.42;89.70
18275;BME280;19470;49.322;7.218;2023-03-22T05:15:40;98327.88;;;14.72;88.24
18275;BME280;19470;49.322;7.218;2023-03-22T05:18:07;98326.56;;;14.15;91.92
18275;BME280;19470;49.322;7.218;2023-03-22T05:20:33;98321.66;;;14.38;90.87
18275;BME280;19470;49.322;7.218;2023-03-22T05:23:00;98325.34;;;14.47;90.92
18275;BME280;19470;49.322;7.218;2023-03-22T05:25:30;98320.78;;;14.03;93.74
18275;BME280;19470;49.322;7.218;2023-03-22T05:27:56;98325.47;;;14.26;91.18
18275;BME280;19470;49.322;7.218;2023-03-22T05:30:25;98316.25;;;14.58;89.49
18275;BME280;19470;49.322;7.218;2023-03-22T05:32:56;98316.25;;;14.03;91.59
18275;BME280;19470;49.322;7.218;2023-03-22T05:35:24;98320.03;;;13.82;93.97
18275;BME280;19470;49.322;7.218;2023-03-22T05:37:50;98311.34;;;14.21;91.74
18275;BME280;19470;49.322;7.218;2023-03-22T05:40:17;98313.69;;;14.32;90.55
18275;BME280;19470;49.322;7.218;2023-03-22T05:42:45;98310.47;;;14.41;90.82
18275;BME280;19470;49.322;7.218;2023-03-22T05:45:11;98313.53;;;14.63;89.85
18275;BME280;19470;49.322;7.218;2023-03-22T05:47:38;98310.16;;;14.92;88.74
18275;BME280;19470;49.322;7.218;2023-03-22T05:50:06;98315.81;;;14.36;91.14
18275;BME280;19470;49.322;7.218;2023-03-22T05:52:33;98317.75;;;14.74;89.43
18275;BME280;19470;49.322;7.218;2023-03-22T05:55:00;98313.78;;;14.67;90.70
18275;BME280;19470;49.322;7.218;2023-03-22T05:57:27;98315.97;;;14.60;89.87
18275;BME280;19470;49.322;7.218;2023-03-22T05:59:55;98321.22;;;14.20;94.78
18275;BME280;19470;49.322;7.218;2023-03-22T06:02:22;98320.41;;;14.74;90.45
18275;BME280;19470;49.322;7.218;2023-03-22T06:04:49;98317.09;;;14.93;89.04
18275;BME280;19470;49.322;7.218;2023-03-22T06:07:16;98319.44;;;14.60;90.08
18275;BME280;19470;49.322;7.218;2023-03-22T06:09:43;98329.09;;;15.24;88.32
18275;BME280;19470;49.322;7.218;2023-03-22T06:12:10;98324.00;;;14.94;89.24
18275;BME280;19470;49.322;7.218;2023-03-22T06:14:36;98333.72;;;14.25;93.75
18275;BME280;19470;49.322;7.218;2023-03-22T06:17:04;98336.16;;;15.05;89.77
18275;BME280;19470;49.322;7.218;2023-03-22T06:19:31;98334.50;;;15.14;89.14
18275;BME280;19470;49.322;7.218;2023-03-22T06:21:57;98328.56;;;15.80;85.81
18275;BME280;19470;49.322;7.218;2023-03-22T06:24:24;98330.44;;;15.80;85.54
18275;BME280;19470;49.322;7.218;2023-03-22T06:26:51;98332.06;;;15.47;86.74
18275;BME280;19470;49.322;7.218;2023-03-22T06:29:17;98333.88;;;15.86;85.19
18275;BME280;19470;49.322;7.218;2023-03-22T06:31:44;98332.91;;;15.71;85.29
18275;BME280;19470;49.322;7.218;2023-03-22T06:34:13;98348.91;;;15.13;88.91
18275;BME280;19470;49.322;7.218;2023-03-22T06:36:39;98343.47;;;15.57;86.04
18275;BME280;19470;49.322;7.218;2023-03-22T06:39:06;98342.31;;;15.69;86.76
18275;BME280;19470;49.322;7.218;2023-03-22T06:41:33;98345.56;;;15.31;88.70
18275;BME280;19470;49.322;7.218;2023-03-22T06:44:00;98354.47;;;15.51;88.64
18275;BME280;19470;49.322;7.218;2023-03-22T06:46:27;98356.13;;;16.24;83.72
18275;BME280;19470;49.322;7.218;2023-03-22T06:48:53;98345.53;;;16.14;84.48
18275;BME280;19470;49.322;7.218;2023-03-22T06:51:21;98338.47;;;16.66;81.65
18275;BME280;19470;49.322;7.218;2023-03-22T06:53:47;98339.41;;;16.75;80.51
18275;BME280;19470;49.322;7.218;2023-03-22T06:56:14;98349.53;;;16.16;83.64
18275;BME280;19470;49.322;7.218;2023-03-22T06:58:40;98345.41;;;16.85;80.59
18275;BME280;19470;49.322;7.218;2023-03-22T07:01:07;98353.91;;;16.50;82.77
18275;BME280;19470;49.322;7.218;2023-03-22T07:03:33;98341.41;;;16.64;82.31
18275;BME280;19470;49.322;7.218;2023-03-22T07:06:01;98344.97;;;16.97;79.86
18275;BME280;19470;49.322;7.218;2023-03-22T07:08:29;98346.50;;;16.42;82.87
18275;BME280;19470;49.322;7.218;2023-03-22T07:10:55;98346.47;;;16.66;81.20
18275;BME280;19470;49.322;7.218;2023-03-22T07:13:22;98347.38;;;17.31;77.61
18275;BME280;19470;49.322;7.218;2023-03-22T07:15:48;98337.91;;;17.20;78.82
18275;BME280;19470;49.322;7.218;2023-03-22T07:18:15;98330.03;;;17.89;76.27
18275;BME280;19470;49.322;7.218;2023-03-22T07:20:41;98330.19;;;17.65;76.50
18275;BME280;19470;49.322;7.218;2023-03-22T07:23:08;98326.53;;;17.28;78.30
18275;BME280;19470;49.322;7.218;2023-03-22T07:25:37;98326.97;;;17.63;77.25
18275;BME280;19470;49.322;7.218;2023-03-22T07:28:03;98335.22;;;17.20;78.40
18275;BME280;19470;49.322;7.218;2023-03-22T07:30:31;98341.72;;;17.00;79.01
18275;BME280;19470;49.322;7.218;2023-03-22T07:33:00;98344.59;;;16.66;80.99
18275;BME280;19470;49.322;7.218;2023-03-22T07:35:26;98344.59;;;17.04;78.85
18275;BME280;19470;49.322;7.218;2023-03-22T07:37:53;98344.59;;;17.36;77.88
18275;BME280;19470;49.322;7.218;2023-03-22T07:40:20;98344.94;;;17.16;78.84
18275;BME280;19470;49.322;7.218;2023-03-22T07:42:48;98340.31;;;17.03;79.53
18275;BME280;19470;49.322;7.218;2023-03-22T07:45:16;98352.25;;;17.43;76.94
18275;BME280;19470;49.322;7.218;2023-03-22T07:47:43;98346.59;;;17.45;75.94
18275;BME280;19470;49.322;7.218;2023-03-22T07:50:10;98348.81;;;17.70;76.07
18275;BME280;19470;49.322;7.218;2023-03-22T07:52:37;98350.91;;;17.73;75.14
18275;BME280;19470;49.322;7.218;2023-03-22T07:55:04;98351.19;;;16.93;77.64
18275;BME280;19470;49.322;7.218;2023-03-22T07:57:31;98342.13;;;16.70;80.22
18275;BME280;19470;49.322;7.218;2023-03-22T07:59:59;98341.91;;;17.83;76.23
18275;BME280;19470;49.322;7.218;2023-03-22T08:02:25;98333.06;;;18.24;74.36
18275;BME280;19470;49.322;7.218;2023-03-22T08:04:52;98341.38;;;18.50;73.18
18275;BME280;19470;49.322;7.218;2023-03-22T08:07:19;98340.13;;;18.06;74.86
18275;BME280;19470;49.322;7.218;2023-03-22T08:09:46;98336.31;;;18.84;72.04
18275;BME280;19470;49.322;7.218;2023-03-22T08:12:13;98338.16;;;16.48;80.99
18275;BME280;19470;49.322;7.218;2023-03-22T08:14:40;98355.13;;;16.39;80.99
18275;BME280;19470;49.322;7.218;2023-03-22T08:17:08;98331.72;;;16.49;80.73
18275;BME280;19470;49.322;7.218;2023-03-22T08:19:34;98329.97;;;17.15;78.17
18275;BME280;19470;49.322;7.218;2023-03-22T08:22:01;98324.16;;;17.27;77.45
18275;BME280;19470;49.322;7.218;2023-03-22T08:24:27;98326.09;;;17.21;77.94
18275;BME280;19470;49.322;7.218;2023-03-22T08:26:54;98339.34;;;17.31;76.88
18275;BME280;19470;49.322;7.218;2023-03-22T08:29:21;98320.09;;;18.17;73.16
18275;BME280;19470;49.322;7.218;2023-03-22T08:31:49;98329.63;;;16.84;79.45
18275;BME280;19470;49.322;7.218;2023-03-22T08:34:17;98333.38;;;17.95;74.71
18275;BME280;19470;49.322;7.218;2023-03-22T08:36:43;98331.88;;;16.96;77.89
18275;BME280;19470;49.322;7.218;2023-03-22T08:39:10;98317.63;;;17.79;74.99
18275;BME280;19470;49.322;7.218;2023-03-22T08:41:37;98322.69;;;17.95;74.21
18275;BME280;19470;49.322;7.218;2023-03-22T08:44:04;98322.34;;;16.90;78.42
18275;BME280;19470;49.322;7.218;2023-03-22T08:46:31;98311.44;;;17.65;74.26
18275;BME280;19470;49.322;7.218;2023-03-22T08:48:57;98312.22;;;17.52;75.10
18275;BME280;19470;49.322;7.218;2023-03-22T08:51:26;98297.97;;;17.84;74.19
18275;BME280;19470;49.322;7.218;2023-03-22T08:53:53;98315.88;;;18.38;71.48
18275;BME280;19470;49.322;7.218;2023-03-22T08:56:22;98296.06;;;17.57;76.63
18275;BME280;19470;49.322;7.218;2023-03-22T08:58:51;98295.53;;;17.41;76.24
18275;BME280;19470;49.322;7.218;2023-03-22T09:01:18;98295.44;;;18.15;74.11
18275;BME280;19470;49.322;7.218;2023-03-22T09:03:45;98280.13;;;17.19;76.54
18275;BME280;19470;49.322;7.218;2023-03-22T09:06:12;98289.84;;;17.75;75.47
18275;BME280;19470;49.322;7.218;2023-03-22T09:08:40;98290.50;;;17.53;76.94
18275;BME280;19470;49.322;7.218;2023-03-22T09:11:07;98287.53;;;17.82;74.70
18275;BME280;19470;49.322;7.218;2023-03-22T09:13:34;98266.91;;;19.14;69.56
18275;BME280;19470;49.322;7.218;2023-03-22T09:16:04;98298.28;;;19.05;69.04
18275;BME280;19470;49.322;7.218;2023-03-22T09:18:32;98273.59;;;18.58;70.80
18275;BME280;19470;49.322;7.218;2023-03-22T09:20:59;98271.44;;;19.05;69.31
18275;BME280;19470;49.322;7.218;2023-03-22T09:23:26;98267.16;;;18.59;70.48
18275;BME280;19470;49.322;7.218;2023-03-22T09:25:58;98267.31;;;18.62;70.74
18275;BME280;19470;49.322;7.218;2023-03-22T09:28:25;98274.03;;;18.87;69.93
18275;BME280;19470;49.322;7.218;2023-03-22T09:30:52;98274.31;;;18.27;72.05
18275;BME280;19470;49.322;7.218;2023-03-22T09:33:19;98277.44;;;18.79;70.15
18275;BME280;19470;49.322;7.218;2023-03-22T09:35:45;98278.47;;;18.56;71.39
18275;BME280;19470;49.322;7.218;2023-03-22T09:38:12;98284.22;;;18.27;72.72
18275;BME280;19470;49.322;7.218;2023-03-22T09:40:45;98279.13;;;18.39;72.02
18275;BME280;19470;49.322;7.218;2023-03-22T09:43:17;98285.34;;;18.48;71.75
18275;BME280;19470;49.322;7.218;2023-03-22T09:45:46;98276.31;;;18.44;70.82
18275;BME280;19470;49.322;7.218;2023-03-22T09:48:18;98273.78;;;19.29;67.52
18275;BME280;19470;49.322;7.218;2023-03-22T09:50:47;98285.47;;;18.79;69.03
18275;BME280;19470;49.322;7.218;2023-03-22T09:53:16;98277.00;;;17.72;73.92
18275;BME280;19470;49.322;7.218;2023-03-22T09:55:45;98275.69;;;18.61;70.34
18275;BME280;19470;49.322;7.218;2023-03-22T09:58:23;98274.13;;;19.36;67.87
18275;BME280;19470;49.322;7.218;2023-03-22T10:00:55;98282.78;;;18.43;69.00
18275;BME280;19470;49.322;7.218;2023-03-22T10:03:41;98288.03;;;18.12;70.85
18275;BME280;19470;49.322;7.218;2023-03-22T10:06:17;98266.53;;;18.62;69.27
18275;BME280;19470;49.322;7.218;2023-03-22T10:08:52;98287.31;;;18.70;66.64
18275;BME280;19470;49.322;7.218;2023-03-22T10:11:28;98281.63;;;18.72;65.68
18275;BME280;19470;49.322;7.218;2023-03-22T10:14:04;98271.53;;;18.69;65.30
18275;BME280;19470;49.322;7.218;2023-03-22T10:16:35;98281.41;;;18.46;66.01
18275;BME280;19470;49.322;7.218;2023-03-22T10:19:04;98250.84;;;18.69;66.00
18275;BME280;19470;49.322;7.218;2023-03-22T10:21:34;98267.50;;;18.07;68.36
18275;BME280;19470;49.322;7.218;2023-03-22T10:24:05;98268.34;;;18.53;66.19
18275;BME280;19470;49.322;7.218;2023-03-22T10:26:37;98245.84;;;18.99;65.50
18275;BME280;19470;49.322;7.218;2023-03-22T10:29:11;98275.34;;;18.76;64.13
18275;BME280;19470;49.322;7.218;2023-03-22T10:31:42;98291.22;;;17.86;66.27
18275;BME280;19470;49.322;7.218;2023-03-22T10:34:15;98264.63;;;18.99;62.88
18275;BME280;19470;49.322;7.218;2023-03-22T10:36:43;98269.41;;;18.65;64.02
18275;BME280;19470;49.322;7.218;2023-03-22T10:39:15;98259.56;;;18.75;63.28
18275;BME280;19470;49.322;7.218;2023-03-22T10:41:45;98272.66;;;20.01;59.29
18275;BME280;19470;49.322;7.218;2023-03-22T10:44:16;98250.06;;;20.88;57.92
18275;BME280;19470;49.322;7.218;2023-03-22T10:46:44;98252.97;;;19.74;60.02
18275;BME280;19470;49.322;7.218;2023-03-22T10:49:17;98252.06;;;19.48;61.64
18275;BME280;19470;49.322;7.218;2023-03-22T10:51:49;98247.97;;;21.03;56.47
18275;BME280;19470;49.322;7.218;2023-03-22T10:54:18;98248.97;;;20.89;57.23
18275;BME280;19470;49.322;7.218;2023-03-22T10:56:45;98244.44;;;22.47;53.30
18275;BME280;19470;49.322;7.218;2023-03-22T10:59:44;98242.47;;;22.05;53.50
18275;BME280;19470;49.322;7.218;2023-03-22T11:02:20;98248.78;;;23.51;50.38
18275;BME280;19470;49.322;7.218;2023-03-22T11:04:49;98241.25;;;22.03;54.03
18275;BME280;19470;49.322;7.218;2023-03-22T11:07:27;98234.91;;;20.49;58.53
18275;BME280;19470;49.322;7.218;2023-03-22T11:09:58;98243.38;;;19.99;59.27
18275;BME280;19470;49.322;7.218;2023-03-22T11:12:25;98236.59;;;21.82;55.72
18275;BME280;19470;49.322;7.218;2023-03-22T11:14:55;98221.75;;;22.27;53.50
18275;BME280;19470;49.322;7.218;2023-03-22T11:17:22;98237.22;;;21.03;57.22
18275;BME280;19470;49.322;7.218;2023-03-22T11:19:52;98230.31;;;21.99;54.83
18275;BME280;19470;49.322;7.218;2023-03-22T11:22:24;98220.97;;;20.30;58.82
18275;BME280;19470;49.322;7.218;2023-03-22T11:24:51;98235.47;;;19.94;59.67
18275;BME280;19470;49.322;7.218;2023-03-22T11:27:22;98223.66;;;20.30;59.23
18275;BME280;19470;49.322;7.218;2023-03-22T11:29:51;98223.81;;;20.77;56.68
18275;BME280;19470;49.322;7.218;2023-03-22T11:32:24;98260.44;;;21.25;53.73
18275;BME280;19470;49.322;7.218;2023-03-22T11:34:59;98221.72;;;21.00;55.40
18275;BME280;19470;49.322;7.218;2023-03-22T11:37:26;98223.22;;;20.54;56.04
18275;BME280;19470;49.322;7.218;2023-03-22T11:39:58;98212.56;;;21.30;56.03
18275;BME280;19470;49.322;7.218;2023-03-22T11:42:26;98219.06;;;20.74;57.47
18275;BME280;19470;49.322;7.218;2023-03-22T11:44:53;98216.41;;;20.48;58.35
18275;BME280;19470;49.322;7.218;2023-03-22T11:47:24;98215.44;;;20.43;59.35
18275;BME280;19470;49.322;7.218;2023-03-22T11:49:51;98204.88;;;21.58;55.89
18275;BME280;19470;49.322;7.218;2023-03-22T11:52:21;98210.22;;;22.38;54.19
18275;BME280;19470;49.322;7.218;2023-03-22T11:54:49;98217.78;;;21.74;55.06
18275;BME280;19470;49.322;7.218;2023-03-22T11:57:20;98207.28;;;21.13;56.04
18275;BME280;19470;49.322;7.218;2023-03-22T11:59:54;98201.88;;;21.60;54.64
18275;BME280;19470;49.322;7.218;2023-03-22T12:02:24;98213.66;;;21.47;53.55
18275;BME280;19470;49.322;7.218;2023-03-22T12:04:55;98213.09;;;23.20;49.31
18275;BME280;19470;49.322;7.218;2023-03-22T12:07:27;98203.44;;;23.81;47.39
18275;BME280;19470;49.322;7.218;2023-03-22T12:09:57;98193.19;;;24.55;45.71
18275;BME280;19470;49.322;7.218;2023-03-22T12:12:28;98180.41;;;21.63;53.30
18275;BME280;19470;49.322;7.218;2023-03-22T12:14:59;98191.38;;;22.09;51.82
18275;BME280;19470;49.322;7.218;2023-03-22T12:17:35;98205.31;;;21.69;53.55
18275;BME280;19470;49.322;7.218;2023-03-22T12:20:09;98194.94;;;22.01;53.44
18275;BME280;19470;49.322;7.218;2023-03-22T12:22:42;98190.47;;;22.47;52.11
18275;BME280;19470;49.322;7.218;2023-03-22T12:25:13;98187.28;;;23.47;48.52
18275;BME280;19470;49.322;7.218;2023-03-22T12:27:43;98187.75;;;24.27;48.08
18275;BME280;19470;49.322;7.218;2023-03-22T12:30:13;98190.72;;;24.50;46.57
18275;BME280;19470;49.322;7.218;2023-03-22T12:32:45;98172.94;;;24.48;46.51
18275;BME280;19470;49.322;7.218;2023-03-22T12:35:17;98174.53;;;21.70;53.33
18275;BME280;19470;49.322;7.218;2023-03-22T12:37:46;98169.84;;;21.58;54.09
18275;BME280;19470;49.322;7.218;2023-03-22T12:40:19;98166.72;;;22.73;51.29
18275;BME280;19470;49.322;7.218;2023-03-22T12:42:50;98180.34;;;20.49;57.60
18275;BME280;19470;49.322;7.218;2023-03-22T12:45:24;98151.00;;;21.79;53.99
18275;BME280;19470;49.322;7.218;2023-03-22T12:47:57;98157.81;;;22.39;52.48
18275;BME280;19470;49.322;7.218;2023-03-22T12:50:30;98144.03;;;22.53;50.04
18275;BME280;19470;49.322;7.218;2023-03-22T12:52:58;98141.25;;;23.19;47.31
18275;BME280;19470;49.322;7.218;2023-03-22T12:55:28;98140.94;;;22.63;48.35
18275;BME280;19470;49.322;7.218;2023-03-22T12:57:57;98139.50;;;22.78;47.84
18275;BME280;19470;49.322;7.218;2023-03-22T13:00:27;98157.38;;;23.16;47.17
18275;BME280;19470;49.322;7.218;2023-03-22T13:02:59;98148.63;;;22.40;46.67
18275;BME280;19470;49.322;7.218;2023-03-22T13:05:28;98137.47;;;21.88;48.03
18275;BME280;19470;49.322;7.218;2023-03-22T13:07:57;98138.56;;;22.62;45.76
18275;BME280;19470;49.322;7.218;2023-03-22T13:13:46;98139.50;;;22.78;45.54
18275;BME280;19470;49.322;7.218;2023-03-22T13:16:16;98119.00;;;23.10;44.95
18275;BME280;19470;49.322;7.218;2023-03-22T13:18:59;98128.50;;;23.57;42.11
18275;BME280;19470;49.322;7.218;2023-03-22T13:21:28;98127.06;;;23.59;42.22